OIZIOIII

Guest
Details From OIZI - Iran Shahr
To OIII - Teheran Mehrabad Intl
Flight Number -
Tags Generated
Created
Modified
Stats Distance 700 nm / 1,296 km
Max Altitude 0 ft / 0 m
Waypoints 4
Social Downloads 1
Likes 0
Share VATSIM

Download

Looking for another format? Having issues loading an existing format? Contact us
Advertisement - Login to hide

Notes

Generated

Route

OIZI ORDAD TRN13 OIII

ID Type Via Altitude Latitude Longitude Leg Dist Tot Dist Heading (true) Name
O OIZI APT - 0 ft / 0 m 27.24659˚ 60.71817˚ - 0 nm - -
ORDAD FIX - 0 ft / 0 m 30.07750˚ 57.92556˚ 224 nm 224 nm 320° / 318° -
TRN13 FIX - 0 ft / 0 m 35.55819˚ 51.49036˚ 462 nm 687 nm 317° / 314° -
O OIII APT - 0 ft / 0 m 35.69663˚ 51.29216˚ 12 nm 699 nm 311° / 311° -

Altitude Profile

Advertisement - Login to hide

Weather


0- 5 10 15 20 25 30 35+ Temperature / ° C

Clouds and Precipitation
Forecast for 2017-12-15 18:00 UTC. Updated an hour ago

Ground ~20,000 ft ~40,000 ft Winds

OIZI

Details ICAO OIZI
Name IRAN SHAHR
Region Iran
Timezone Asia/Tehran (UTC+3.5)
Stats Elevation 2,040 ft / 622 m (AMSL)
Location 27.236117° 60.720039°
Runways 1
Magnetic Variation 1.947° E

METAR

OIZI 151600Z 11004KT CAVOK 14/M14 Q1021

Decode

TAF

Not found

Departure Runways

ID Width Length Bearing (true) Bearing (mag) Surface Threshold Offset Overrun Length
17 150 ft / 46 m 7,739 ft / 2,359 m 170.97° 169.02° Asphalt 0 ft / 0 m 190 ft / 58 m
35 150 ft / 46 m 7,739 ft / 2,359 m 350.97° 349.02° Asphalt 0 ft / 0 m 250 ft / 76 m

OIII

Details ICAO OIII (THR)
Name Teheran Mehrabad Intl
Region Iran
Timezone Asia/Tehran (UTC+3.5)
Stats Elevation 3,962 ft / 1,208 m (AMSL)
Location 35.692631° 51.317409°
Runways 3
Magnetic Variation 4.730° E

METAR

OIII 151630Z 19006KT CAVOK 07/M06 Q1020 A3014 NOSIG

Decode

TAF

TAF OIII 151100Z 1512/1618 20005MPS 6000 NSC BECMG 1518/1520 32004MPS FEW035TCU SCT040 BKN100 BECMG 1603/1605 20005MPS 6000 NSC

Decode

Destination Runways

ID Width Length Bearing (true) Bearing (mag) Surface Threshold Offset Overrun Length
09 131 ft / 40 m 1,553 ft / 473 m 88.25° 83.52° Concrete 0 ft / 0 m 160 ft / 49 m
11L 148 ft / 45 m 13,077 ft / 3,986 m 109.70° 104.97° Asphalt 0 ft / 0 m 1,000 ft / 305 m
11R 197 ft / 60 m 13,227 ft / 4,032 m 109.74° 105.01° Asphalt 3,075 ft / 937 m 1,000 ft / 305 m
27 131 ft / 40 m 1,553 ft / 473 m 268.25° 263.52° Concrete 0 ft / 0 m 90 ft / 27 m
29L 197 ft / 60 m 13,227 ft / 4,032 m 289.77° 285.04° Asphalt 0 ft / 0 m 280 ft / 85 m
29R 148 ft / 45 m 13,077 ft / 3,986 m 289.72° 284.99° Asphalt 0 ft / 0 m 400 ft / 122 m

Approach Navaids

Runway Type Ident Frequency Range Bearing (true) Bearing (mag) Slope Elevation
29L Localiser ITHL 109.90 MHz 18 nm / 33 km 290.97° 286.24° - 3,979 ft / 1,213 m (AMSL)
29L Glidescope ITHL 109.90 MHz 10 nm / 19 km 289.76° 285.03° 3.30° 3,804 ft / 1,159 m (AMSL)
29L DME ITHL 109.90 MHz 18 nm / 33 km - - - 3,804 ft / 1,159 m (AMSL)